Time;durP1;ratioP1;P1;durP2;ratioP2;P2;SDS_P1;SDS_P2;PMS_P1;PMS_P2;Temp;Humidity;BMP_temperature;BMP_pressure;BME280_temperature;BME280_humidity;BME280_pressure;Samples;Min_cycle;Max_cycle;Signal;HPM_P1;HPM_P2
2023/01/21 00:01:20;;;;;;;16.50;13.60;;;5.70;99.90;;;;;;5064915;28;20450;-50
2023/01/21 00:03:46;;;;;;;15.88;12.73;;;5.70;99.90;;;;;;5033711;28;20052;-50
2023/01/21 00:06:15;;;;;;;15.90;13.32;;;5.70;99.90;;;;;;5033584;28;20017;-49
2023/01/21 00:08:41;;;;;;;17.15;14.05;;;5.80;99.90;;;;;;5033430;28;20111;-49
2023/01/21 00:11:13;;;;;;;16.02;13.32;;;5.70;99.90;;;;;;5031474;28;20485;-50
2023/01/21 00:13:39;;;;;;;15.82;13.02;;;5.70;99.90;;;;;;5033344;28;20386;-50
2023/01/21 00:16:06;;;;;;;17.15;14.27;;;5.70;99.90;;;;;;5033591;28;20120;-50
2023/01/21 00:18:32;;;;;;;22.67;16.88;;;5.70;99.90;;;;;;5031371;28;20034;-50
2023/01/21 00:20:58;;;;;;;18.73;16.17;;;5.80;99.90;;;;;;5033699;28;20033;-50
2023/01/21 00:23:24;;;;;;;16.27;14.23;;;5.80;99.90;;;;;;5033184;28;20501;-50
2023/01/21 00:25:57;;;;;;;18.38;14.45;;;5.80;99.90;;;;;;5032986;28;20029;-50
2023/01/21 00:28:22;;;;;;;17.50;14.60;;;5.80;99.90;;;;;;5033720;28;20385;-50
2023/01/21 00:30:48;;;;;;;17.67;14.13;;;5.80;99.90;;;;;;5033093;28;20025;-51
2023/01/21 00:33:14;;;;;;;17.85;14.35;;;5.60;99.90;;;;;;5030332;28;20037;-50
2023/01/21 00:35:41;;;;;;;20.30;14.95;;;5.60;99.90;;;;;;5032502;28;20025;-50
2023/01/21 00:38:06;;;;;;;19.05;15.13;;;5.70;99.90;;;;;;5046970;28;20116;-50
2023/01/21 00:40:32;;;;;;;18.38;15.05;;;5.70;99.90;;;;;;5032353;28;20568;-50
2023/01/21 00:42:58;;;;;;;16.50;13.70;;;5.70;99.90;;;;;;5047341;28;20050;-50
2023/01/21 00:45:24;;;;;;;18.73;14.45;;;5.70;99.90;;;;;;5047656;28;20061;-50
2023/01/21 00:47:49;;;;;;;17.38;14.50;;;5.70;99.90;;;;;;5033058;28;20025;-50
2023/01/21 00:50:15;;;;;;;18.05;14.70;;;5.80;99.90;;;;;;5033849;28;20038;-50
2023/01/21 00:52:41;;;;;;;17.45;14.60;;;5.80;99.90;;;;;;5048613;28;20120;-56
2023/01/21 00:55:07;;;;;;;17.83;13.50;;;5.80;99.90;;;;;;5039036;28;20060;-50
2023/01/21 00:57:33;;;;;;;16.83;13.57;;;5.80;99.90;;;;;;5034137;28;20040;-51
2023/01/21 01:00:00;;;;;;;17.63;14.23;;;5.70;99.90;;;;;;5052869;28;20389;-50
2023/01/21 01:02:25;;;;;;;19.55;14.57;;;5.60;99.90;;;;;;5052834;28;20025;-50
2023/01/21 01:04:51;;;;;;;18.52;14.70;;;5.30;99.90;;;;;;5050840;28;20052;-50
2023/01/21 01:07:17;;;;;;;19.15;14.48;;;5.10;99.90;;;;;;5052727;28;20025;-50
2023/01/21 01:09:43;;;;;;;20.73;14.48;;;5.20;99.90;;;;;;5055588;28;20053;-50
2023/01/21 01:12:08;;;;;;;17.77;14.35;;;5.40;99.90;;;;;;5060885;28;20029;-50
2023/01/21 01:14:34;;;;;;;18.70;14.57;;;5.50;99.90;;;;;;5059169;28;20191;-51
2023/01/21 01:17:00;;;;;;;18.90;14.60;;;5.50;99.90;;;;;;5056897;28;20060;-50
2023/01/21 01:19:26;;;;;;;18.67;15.18;;;5.50;99.90;;;;;;5037940;28;20041;-50
2023/01/21 01:21:51;;;;;;;21.02;15.15;;;5.60;99.90;;;;;;5055938;28;20037;-50
2023/01/21 01:24:17;;;;;;;18.13;14.82;;;5.70;99.90;;;;;;5057670;28;20041;-50
2023/01/21 01:26:43;;;;;;;20.55;14.98;;;5.60;99.90;;;;;;5076483;28;20039;-50
2023/01/21 01:29:11;;;;;;;19.45;16.40;;;5.70;99.90;;;;;;5074732;28;20089;-50
2023/01/21 01:31:37;;;;;;;18.88;15.10;;;5.60;99.90;;;;;;5075843;28;20468;-50
2023/01/21 01:34:03;;;;;;;17.63;14.18;;;5.70;99.90;;;;;;5076356;28;20036;-50
2023/01/21 01:36:29;;;;;;;18.52;14.38;;;5.70;99.90;;;;;;5076047;28;20028;-50
2023/01/21 01:38:55;;;;;;;16.98;14.30;;;5.70;99.90;;;;;;5057795;28;20043;-50
2023/01/21 01:41:26;;;;;;;17.20;13.95;;;5.70;99.90;;;;;;5054356;28;20484;-50
2023/01/21 01:43:57;;;;;;;20.52;14.80;;;5.70;99.90;;;;;;5056243;28;20075;-50
2023/01/21 01:46:29;;;;;;;19.85;14.48;;;5.80;99.90;;;;;;5055943;28;20021;-50
2023/01/21 01:49:14;;;;;;;17.92;13.93;;;5.70;99.90;;;;;;5057447;28;20509;-50
2023/01/21 01:51:53;;;;;;;17.60;13.60;;;5.60;99.90;;;;;;5059957;28;20021;-51
2023/01/21 01:54:25;;;;;;;18.13;14.70;;;5.30;99.90;;;;;;5057379;28;20163;-50
2023/01/21 01:56:55;;;;;;;19.15;14.68;;;5.00;99.90;;;;;;5055725;28;20067;-50
2023/01/21 01:59:22;;;;;;;18.00;14.20;;;5.00;99.90;;;;;;5055949;28;20029;-51
2023/01/21 02:01:48;;;;;;;20.45;16.00;;;5.20;99.90;;;;;;5055987;28;20049;-50
2023/01/21 02:04:20;;;;;;;19.02;15.63;;;5.30;99.90;;;;;;5055250;28;20037;-50
2023/01/21 02:06:47;;;;;;;21.92;16.15;;;5.20;99.90;;;;;;5037194;28;20040;-50
2023/01/21 02:09:13;;;;;;;21.85;16.17;;;4.90;99.90;;;;;;5053707;28;20033;-50
2023/01/21 02:11:39;;;;;;;23.63;18.38;;;4.50;99.90;;;;;;5055457;28;20025;-50
2023/01/21 02:14:05;;;;;;;25.83;19.15;;;4.30;99.90;;;;;;5053285;28;20033;-50
2023/01/21 02:17:06;;;;;;;24.23;16.80;;;4.30;99.90;;;;;;5055690;28;20025;-50
2023/01/21 02:19:58;;;;;;;21.67;16.65;;;4.40;99.90;;;;;;5032608;28;20560;-50
2023/01/21 02:22:49;;;;;;;21.20;15.55;;;4.50;99.90;;;;;;5033174;28;20207;-50
2023/01/21 02:25:45;;;;;;;21.52;15.85;;;4.60;99.90;;;;;;5033166;28;20041;-49
2023/01/21 02:28:41;;;;;;;19.63;15.73;;;4.90;99.90;;;;;;5033012;28;20037;-49
2023/01/21 02:31:28;;;;;;;21.73;16.58;;;5.10;99.90;;;;;;5033157;28;20113;-50
2023/01/21 02:34:24;;;;;;;21.15;15.55;;;5.30;99.90;;;;;;5016565;28;20133;-50
2023/01/21 02:37:12;;;;;;;18.75;14.98;;;5.40;99.90;;;;;;5033113;28;20127;-50
2023/01/21 02:39:40;;;;;;;20.27;15.60;;;5.40;99.90;;;;;;5033046;28;20025;-50
2023/01/21 02:42:16;;;;;;;20.25;15.80;;;5.50;99.90;;;;;;5027200;28;20148;-50
2023/01/21 02:44:52;;;;;;;18.85;15.50;;;5.60;99.90;;;;;;5032803;28;20034;-50
2023/01/21 02:47:24;;;;;;;18.80;15.05;;;5.60;99.90;;;;;;5032953;28;20034;-50
2023/01/21 02:50:11;;;;;;;20.48;14.85;;;5.60;99.90;;;;;;5032861;28;20048;-50
2023/01/21 02:52:36;;;;;;;20.55;16.17;;;5.70;99.90;;;;;;5032704;28;20469;-50
2023/01/21 02:55:03;;;;;;;21.30;15.63;;;5.70;99.90;;;;;;5035128;28;20045;-50
2023/01/21 02:57:43;;;;;;;18.92;15.43;;;5.70;99.90;;;;;;5054732;28;20032;-50
2023/01/21 03:00:17;;;;;;;19.33;15.90;;;5.50;99.90;;;;;;5054473;28;20036;-50
2023/01/21 03:03:01;;;;;;;20.08;15.30;;;5.60;99.90;;;;;;5054160;28;20081;-50
2023/01/21 03:06:02;;;;;;;18.85;15.38;;;5.50;99.90;;;;;;5054599;28;20032;-50
2023/01/21 03:08:40;;;;;;;17.80;14.93;;;5.50;99.90;;;;;;5054386;28;20446;-50
2023/01/21 03:11:12;;;;;;;20.13;15.35;;;5.50;99.90;;;;;;5052622;28;20045;-50
2023/01/21 03:19:20;;;;;;;18.77;15.38;;;5.50;99.90;;;;;;5054317;28;20031;-50
2023/01/21 03:21:49;;;;;;;21.00;16.17;;;5.30;99.90;;;;;;5054317;28;20079;-50
2023/01/21 03:24:15;;;;;;;21.58;15.65;;;4.90;99.90;;;;;;5054235;28;20040;-50
2023/01/21 03:26:49;;;;;;;20.60;16.00;;;4.80;99.90;;;;;;5054450;28;20029;-50
2023/01/21 03:29:22;;;;;;;20.95;15.90;;;4.60;99.90;;;;;;5054253;28;20393;-51
2023/01/21 03:31:52;;;;;;;22.60;16.95;;;4.50;99.90;;;;;;5053515;28;20029;-50
2023/01/21 03:34:20;;;;;;;21.65;16.20;;;4.50;99.90;;;;;;5054289;28;20025;-50
2023/01/21 03:37:13;;;;;;;22.05;16.00;;;4.40;99.90;;;;;;5054188;28;20025;-49
2023/01/21 03:39:44;;;;;;;;;;;4.10;99.90;;;;;;5052710;28;20045;-50
2023/01/21 03:42:12;;;;;;;20.98;14.98;;;3.90;99.90;;;;;;5035506;28;19905;-50
2023/01/21 03:44:38;;;;;;;21.13;17.00;;;4.00;99.90;;;;;;5054903;28;20041;-52
2023/01/21 03:47:20;;;;;;;23.15;17.73;;;4.00;99.90;;;;;;5058535;28;20033;-51
2023/01/21 03:49:53;;;;;;;29.35;18.30;;;4.00;99.90;;;;;;5059887;28;20071;-53
2023/01/21 03:52:21;;;;;;;27.98;19.77;;;3.90;99.90;;;;;;5053571;28;20051;-49
2023/01/21 03:54:48;;;;;;;23.80;17.77;;;3.80;99.90;;;;;;5068309;28;20166;-49
2023/01/21 03:57:14;;;;;;;25.20;18.63;;;3.60;99.90;;;;;;5054446;28;20482;-50
2023/01/21 03:59:39;;;;;;;24.55;18.35;;;3.40;99.90;;;;;;5053321;28;20446;-50
2023/01/21 04:02:05;;;;;;;27.63;19.67;;;3.40;99.90;;;;;;5053694;28;20041;-50
2023/01/21 04:04:31;;;;;;;27.58;19.30;;;3.50;99.90;;;;;;5053422;28;20477;-50
2023/01/21 04:06:57;;;;;;;28.13;19.90;;;3.70;99.90;;;;;;5053358;28;20026;-50
2023/01/21 04:09:23;;;;;;;28.27;21.67;;;3.70;99.90;;;;;;5053223;28;20021;-50
2023/01/21 04:11:48;;;;;;;28.38;19.63;;;4.10;99.90;;;;;;5053548;28;20028;-50
2023/01/21 04:14:14;;;;;;;30.00;19.80;;;4.00;99.90;;;;;;5053245;28;20086;-50
2023/01/21 04:16:40;;;;;;;28.08;19.77;;;3.80;99.90;;;;;;5053105;28;20070;-50
2023/01/21 04:19:05;;;;;;;30.63;21.45;;;3.80;99.90;;;;;;5053554;28;20029;-50
2023/01/21 04:21:31;;;;;;;31.85;20.83;;;3.90;99.90;;;;;;5051468;28;20037;-50
2023/01/21 04:23:57;;;;;;;34.70;25.23;;;3.90;99.90;;;;;;5053807;28;20033;-51
2023/01/21 04:26:23;;;;;;;28.95;22.33;;;3.90;99.90;;;;;;5057777;28;20028;-50
2023/01/21 04:28:48;;;;;;;29.38;21.42;;;4.00;99.90;;;;;;5058322;28;20425;-50
2023/01/21 04:31:14;;;;;;;30.70;21.83;;;4.10;99.90;;;;;;5051273;28;20392;-50
2023/01/21 04:33:41;;;;;;;31.00;21.73;;;3.90;99.90;;;;;;5051102;28;20036;-49
2023/01/21 04:36:07;;;;;;;28.65;22.20;;;4.00;99.90;;;;;;5053537;28;20350;-49
2023/01/21 04:38:32;;;;;;;27.88;18.88;;;3.80;99.90;;;;;;5050899;28;20123;-50
2023/01/21 04:40:58;;;;;;;32.92;24.60;;;3.60;99.90;;;;;;5052976;28;20032;-50
2023/01/21 04:43:24;;;;;;;30.42;22.48;;;3.60;99.90;;;;;;5034046;28;20044;-50
2023/01/21 04:45:50;;;;;;;32.78;23.67;;;3.60;99.90;;;;;;5053148;28;20032;-50
2023/01/21 04:48:16;;;;;;;33.72;22.92;;;3.60;99.90;;;;;;5052943;28;20035;-50
2023/01/21 04:50:42;;;;;;;30.08;22.05;;;3.70;99.90;;;;;;5052714;28;20381;-50
2023/01/21 04:53:08;;;;;;;32.20;23.13;;;3.60;99.90;;;;;;5052830;28;20029;-50
2023/01/21 04:55:33;;;;;;;31.23;21.65;;;3.80;99.90;;;;;;5033998;28;20052;-50
2023/01/21 04:57:59;;;;;;;28.75;21.75;;;3.90;99.90;;;;;;5052955;28;20549;-50
2023/01/21 05:00:25;;;;;;;31.20;22.33;;;4.10;99.90;;;;;;5034262;28;20060;-50
2023/01/21 05:02:51;;;;;;;31.33;22.77;;;4.20;99.90;;;;;;5052975;28;20029;-50
2023/01/21 05:05:16;;;;;;;30.73;21.55;;;4.30;99.90;;;;;;5052799;28;20116;-50
2023/01/21 05:07:42;;;;;;;33.10;23.23;;;4.30;99.90;;;;;;5052684;28;20021;-50
2023/01/21 05:10:14;;;;;;;31.63;22.75;;;4.30;99.90;;;;;;5052252;28;20029;-50
2023/01/21 05:12:39;;;;;;;34.22;24.27;;;4.20;99.90;;;;;;5034639;28;20036;-50
2023/01/21 05:15:06;;;;;;;36.35;26.83;;;4.20;99.90;;;;;;5053238;28;20037;-50
2023/01/21 05:17:31;;;;;;;42.13;28.30;;;4.20;99.90;;;;;;5052609;28;20037;-51
2023/01/21 05:19:57;;;;;;;40.28;29.17;;;4.20;99.90;;;;;;5054084;28;20117;-50
2023/01/21 05:22:23;;;;;;;45.08;31.45;;;4.20;99.90;;;;;;5052692;28;20032;-50
2023/01/21 05:24:49;;;;;;;49.88;34.13;;;4.10;99.90;;;;;;5052431;28;20100;-50
2023/01/21 05:27:14;;;;;;;43.65;30.40;;;4.10;99.90;;;;;;5052807;28;20060;-50
2023/01/21 05:29:40;;;;;;;37.63;27.27;;;4.10;99.90;;;;;;5052351;28;20029;-50
2023/01/21 05:32:06;;;;;;;40.95;28.00;;;4.00;99.90;;;;;;5052486;28;20031;-50
2023/01/21 05:34:32;;;;;;;44.75;30.65;;;4.20;99.90;;;;;;5052590;28;20021;-50
2023/01/21 05:36:57;;;;;;;46.55;33.17;;;4.40;99.90;;;;;;5052468;28;20022;-50
2023/01/21 05:39:23;;;;;;;49.45;32.88;;;4.50;99.90;;;;;;5052404;28;20036;-50
2023/01/21 05:41:49;;;;;;;52.70;34.63;;;4.60;99.90;;;;;;5050458;28;20033;-50
2023/01/21 05:44:14;;;;;;;48.05;33.30;;;4.60;99.90;;;;;;5052688;28;20029;-50
2023/01/21 05:46:40;;;;;;;50.63;32.83;;;4.80;99.90;;;;;;5052224;28;20029;-50
2023/01/21 05:49:06;;;;;;;64.55;40.45;;;4.80;99.90;;;;;;5033930;28;20481;-50
2023/01/21 05:51:32;;;;;;;57.55;37.65;;;4.90;99.90;;;;;;5052335;28;20029;-50
2023/01/21 05:53:57;;;;;;;56.33;36.83;;;5.00;99.90;;;;;;5050292;28;20037;-50
2023/01/21 05:56:23;;;;;;;54.00;36.00;;;5.00;99.90;;;;;;5054888;28;20048;-50
2023/01/21 05:58:49;;;;;;;49.58;33.53;;;5.10;99.90;;;;;;5055746;28;20064;-50
2023/01/21 06:01:14;;;;;;;52.40;36.63;;;5.10;99.90;;;;;;5056233;28;20032;-50
2023/01/21 06:03:40;;;;;;;49.03;35.60;;;5.20;99.90;;;;;;5004190;28;20037;-50
2023/01/21 06:06:06;;;;;;;45.05;31.45;;;5.20;99.90;;;;;;5055570;28;20067;-50
2023/01/21 06:08:32;;;;;;;50.92;33.75;;;5.30;99.90;;;;;;5020331;28;20481;-50
2023/01/21 06:10:58;;;;;;;48.05;34.13;;;5.30;99.90;;;;;;5054869;28;20039;-50
2023/01/21 06:13:23;;;;;;;43.88;31.17;;;5.30;99.90;;;;;;5053565;28;20136;-50
2023/01/21 06:15:52;;;;;;;45.03;31.48;;;5.20;99.90;;;;;;5055475;28;20037;-51
2023/01/21 06:18:18;;;;;;;57.53;40.25;;;5.30;99.90;;;;;;5054042;28;20431;-50
2023/01/21 06:20:43;;;;;;;61.90;42.88;;;5.30;99.90;;;;;;5054850;28;20064;-49
2023/01/21 06:23:09;;;;;;;66.75;42.75;;;5.20;99.90;;;;;;5070319;28;20098;-50
2023/01/21 06:25:35;;;;;;;66.80;45.13;;;5.20;99.90;;;;;;5055185;28;20032;-50
2023/01/21 06:28:01;;;;;;;68.57;45.90;;;5.20;99.90;;;;;;5036661;28;20033;-50
2023/01/21 06:30:27;;;;;;;62.97;43.70;;;5.30;99.90;;;;;;5053468;28;20045;-50
2023/01/21 06:32:52;;;;;;;60.67;41.72;;;5.40;99.90;;;;;;5053376;28;20040;-50
2023/01/21 06:35:18;;;;;;;54.55;37.50;;;5.40;99.90;;;;;;5022243;28;20126;-50
2023/01/21 06:37:45;;;;;;;58.80;41.28;;;5.50;99.90;;;;;;5057812;28;20107;-50
2023/01/21 06:40:12;;;;;;;69.05;46.88;;;5.50;99.90;;;;;;5056086;28;20421;-51
2023/01/21 06:42:38;;;;;;;66.35;42.92;;;5.20;99.90;;;;;;5036651;28;20120;-50
2023/01/21 06:45:04;;;;;;;64.40;44.50;;;5.10;99.90;;;;;;5053088;28;20133;-50
2023/01/21 06:47:30;;;;;;;52.08;37.03;;;4.90;99.90;;;;;;5054894;28;20025;-50
2023/01/21 06:49:55;;;;;;;56.25;38.25;;;4.90;99.90;;;;;;5053076;28;20049;-50
2023/01/21 06:52:22;;;;;;;47.65;33.42;;;5.20;99.90;;;;;;5054784;28;20100;-52
2023/01/21 06:54:47;;;;;;;47.20;34.13;;;5.10;99.90;;;;;;5054481;28;20488;-50
2023/01/21 06:57:13;;;;;;;42.35;31.17;;;5.10;99.90;;;;;;5052921;28;20045;-51
2023/01/21 06:59:40;;;;;;;47.25;34.58;;;4.80;99.90;;;;;;5054844;28;20025;-49
2023/01/21 07:02:06;;;;;;;46.63;32.78;;;5.20;99.90;;;;;;5054575;28;20064;-49
2023/01/21 07:04:32;;;;;;;49.50;33.67;;;5.20;99.90;;;;;;5054590;28;20033;-50
2023/01/21 07:06:58;;;;;;;54.47;36.58;;;5.20;99.90;;;;;;5054453;28;20074;-50
2023/01/21 07:09:24;;;;;;;49.90;35.67;;;5.00;99.90;;;;;;5054287;28;20021;-50
2023/01/21 07:11:49;;;;;;;47.30;35.22;;;5.10;99.90;;;;;;5054515;28;20067;-50
2023/01/21 07:14:15;;;;;;;48.70;32.42;;;5.20;99.90;;;;;;5052231;28;20017;-50
2023/01/21 07:16:41;;;;;;;56.58;36.22;;;5.20;99.90;;;;;;5054700;28;20037;-51
2023/01/21 07:19:07;;;;;;;89.45;45.70;;;5.40;99.90;;;;;;5054241;28;20396;-50
2023/01/21 07:21:33;;;;;;;69.53;41.45;;;5.50;99.90;;;;;;5035705;28;20091;-51
2023/01/21 07:23:59;;;;;;;78.93;45.22;;;5.50;99.90;;;;;;5054423;28;20381;-50
2023/01/21 07:26:25;;;;;;;101.75;62.63;;;5.70;99.90;;;;;;5054062;28;20037;-51
2023/01/21 07:28:51;;;;;;;79.18;48.28;;;5.70;99.90;;;;;;5054374;28;20107;-51
2023/01/21 07:31:16;;;;;;;83.10;49.42;;;5.80;99.90;;;;;;5054105;28;20024;-50
2023/01/21 07:33:42;;;;;;;62.55;40.28;;;5.70;99.90;;;;;;5054089;28;20071;-50
2023/01/21 07:36:08;;;;;;;70.10;46.03;;;5.60;99.90;;;;;;5053011;28;20053;-52
2023/01/21 07:38:34;;;;;;;51.80;38.80;;;5.60;99.90;;;;;;5051676;28;20043;-51
2023/01/21 07:41:00;;;;;;;45.25;34.92;;;5.50;99.90;;;;;;5052144;28;20025;-51
2023/01/21 07:43:27;;;;;;;46.75;34.88;;;5.50;99.90;;;;;;5053096;28;20037;-50
2023/01/21 07:45:53;;;;;;;49.03;35.78;;;5.50;99.90;;;;;;5052856;28;20120;-50
2023/01/21 07:48:19;;;;;;;45.78;33.05;;;5.40;99.90;;;;;;5051495;28;20436;-54
2023/01/21 07:50:45;;;;;;;44.20;33.03;;;5.50;99.90;;;;;;5053419;28;20112;-51
2023/01/21 07:53:11;;;;;;;48.03;34.90;;;5.50;99.90;;;;;;5052609;28;20067;-50
2023/01/21 07:55:37;;;;;;;43.30;31.55;;;5.60;99.90;;;;;;5049062;28;20493;-51
2023/01/21 07:58:03;;;;;;;41.05;30.45;;;5.50;99.90;;;;;;5034117;28;20033;-51
2023/01/21 08:00:29;;;;;;;42.88;31.13;;;5.40;99.90;;;;;;5051651;28;20033;-52
2023/01/21 08:02:56;;;;;;;40.30;28.90;;;5.60;99.90;;;;;;5049187;28;20095;-56
2023/01/21 08:05:23;;;;;;;40.05;29.58;;;5.60;99.90;;;;;;5048501;28;20036;-53
2023/01/21 08:07:49;;;;;;;43.80;30.73;;;5.70;99.90;;;;;;5045187;28;20112;-51
2023/01/21 08:10:16;;;;;;;59.30;38.25;;;5.70;99.90;;;;;;5048642;28;20040;-52
2023/01/21 08:12:43;;;;;;;48.63;35.20;;;5.80;99.90;;;;;;5051125;28;20033;-52
2023/01/21 08:15:09;;;;;;;48.38;36.05;;;5.90;99.90;;;;;;5052124;28;20016;-52
2023/01/21 08:17:40;;;;;;;43.95;31.83;;;5.90;99.90;;;;;;5045850;28;20036;-52
2023/01/21 08:20:08;;;;;;;48.28;34.08;;;6.00;99.90;;;;;;5047861;28;20056;-52
2023/01/21 08:22:34;;;;;;;48.63;34.15;;;6.00;99.90;;;;;;5037464;28;20040;-52
2023/01/21 08:25:00;;;;;;;53.85;35.50;;;6.10;99.90;;;;;;5050558;28;20031;-52
2023/01/21 08:27:26;;;;;;;49.63;34.25;;;6.10;99.90;;;;;;5050915;28;20116;-51
2023/01/21 08:29:51;;;;;;;50.90;35.97;;;6.10;99.90;;;;;;5029225;28;20041;-52
2023/01/21 08:32:17;;;;;;;43.08;31.40;;;6.10;99.90;;;;;;5050208;28;20029;-51
2023/01/21 08:34:43;;;;;;;46.47;33.22;;;6.00;99.90;;;;;;5045944;28;20033;-52
2023/01/21 08:37:09;;;;;;;46.75;31.98;;;5.90;99.90;;;;;;5051944;28;20028;-52
2023/01/21 08:39:35;;;;;;;47.60;32.97;;;5.90;99.90;;;;;;5050127;28;20037;-52
2023/01/21 08:42:01;;;;;;;47.33;32.80;;;5.80;99.90;;;;;;5047532;28;20033;-53
2023/01/21 08:44:26;;;;;;;44.72;32.10;;;5.70;99.90;;;;;;5044800;28;20082;-52
2023/01/21 08:46:52;;;;;;;45.58;32.88;;;5.70;99.90;;;;;;5051637;28;20072;-53
2023/01/21 08:49:18;;;;;;;50.88;38.10;;;5.80;99.90;;;;;;5036367;28;20040;-52
2023/01/21 08:51:44;;;;;;;93.85;54.90;;;5.90;99.90;;;;;;5050563;28;20064;-52
2023/01/21 08:54:09;;;;;;;83.40;48.58;;;5.90;99.90;;;;;;5052629;28;20025;-55
2023/01/21 08:56:35;;;;;;;98.75;53.33;;;5.80;99.90;;;;;;5051627;28;20044;-53
2023/01/21 08:59:01;;;;;;;114.85;61.70;;;5.90;99.90;;;;;;5047222;28;20032;-53
2023/01/21 09:01:28;;;;;;;109.38;59.95;;;5.90;99.90;;;;;;5046597;28;20037;-53
2023/01/21 09:03:59;;;;;;;88.97;53.90;;;5.70;99.90;;;;;;5048368;28;20059;-53
2023/01/21 09:06:26;;;;;;;80.07;50.20;;;5.90;99.90;;;;;;5041446;28;20099;-52
2023/01/21 09:08:53;;;;;;;72.78;50.30;;;5.90;99.90;;;;;;5006092;28;20129;-53
2023/01/21 09:11:19;;;;;;;52.70;36.97;;;5.90;99.90;;;;;;5009164;28;20041;-52
2023/01/21 09:13:45;;;;;;;57.58;39.60;;;6.00;99.90;;;;;;5008784;28;20045;-51
2023/01/21 09:16:13;;;;;;;56.03;36.75;;;6.00;99.90;;;;;;5011236;28;20022;-51
2023/01/21 09:18:40;;;;;;;54.20;38.72;;;6.00;99.90;;;;;;5010587;28;20125;-53
2023/01/21 09:21:07;;;;;;;49.30;32.85;;;5.90;99.90;;;;;;5010139;28;20536;-55
2023/01/21 09:23:34;;;;;;;54.17;37.42;;;6.00;99.90;;;;;;5006691;28;20109;-52
2023/01/21 09:26:12;;;;;;;92.82;60.55;;;6.20;99.90;;;;;;5006542;28;20050;-51
2023/01/21 09:28:41;;;;;;;57.03;38.40;;;6.20;99.90;;;;;;5006153;28;20034;-52
2023/01/21 09:31:11;;;;;;;48.65;33.95;;;6.30;99.90;;;;;;4994049;28;20441;-51
2023/01/21 09:33:39;;;;;;;51.50;35.10;;;6.20;99.90;;;;;;5010996;28;20048;-54
2023/01/21 09:36:07;;;;;;;48.72;32.58;;;6.20;99.90;;;;;;5011400;28;20026;-51
2023/01/21 09:38:33;;;;;;;45.70;31.02;;;6.20;99.90;;;;;;4998281;28;20037;-52
2023/01/21 09:41:17;;;;;;;43.90;30.38;;;6.00;99.90;;;;;;5053831;28;20079;-55
2023/01/21 09:43:48;;;;;;;37.70;29.33;;;6.30;99.90;;;;;;5049065;28;20381;-52
2023/01/21 09:46:49;;;;;;;43.75;30.35;;;6.00;99.90;;;;;;5049619;28;20436;-52
2023/01/21 09:49:27;;;;;;;37.20;26.58;;;5.80;99.90;;;;;;5054223;28;20221;-51
2023/01/21 09:52:28;;;;;;;45.63;32.33;;;5.80;99.90;;;;;;5052253;28;20140;-51
2023/01/21 09:54:56;;;;;;;38.38;26.33;;;5.80;99.90;;;;;;5053317;28;20052;-52
2023/01/21 09:57:40;;;;;;;42.20;29.50;;;5.60;99.90;;;;;;5045997;28;20029;-53
2023/01/21 10:00:29;;;;;;;35.05;25.42;;;5.70;99.90;;;;;;5049693;28;20392;-52
2023/01/21 10:03:07;;;;;;;39.55;28.00;;;5.70;99.90;;;;;;5047945;28;20041;-53
2023/01/21 10:05:51;;;;;;;36.50;26.08;;;5.90;99.90;;;;;;5049710;28;20024;-52
2023/01/21 10:08:42;;;;;;;37.63;28.10;;;5.80;99.90;;;;;;5053112;28;20060;-51
2023/01/21 10:11:11;;;;;;;37.67;26.27;;;5.60;99.90;;;;;;5055333;28;20099;-52
2023/01/21 10:13:52;;;;;;;41.63;29.52;;;5.80;99.90;;;;;;5053917;28;20369;-52
2023/01/21 10:16:34;;;;;;;40.50;29.67;;;5.80;99.90;;;;;;5047468;28;20473;-57
2023/01/21 10:19:01;;;;;;;46.65;30.83;;;5.70;99.90;;;;;;5053830;28;20075;-53
2023/01/21 10:21:33;;;;;;;45.25;31.88;;;5.60;99.90;;;;;;5048614;28;20037;-52
2023/01/21 10:24:17;;;;;;;39.10;26.73;;;5.60;99.90;;;;;;5052566;28;20082;-53
2023/01/21 10:26:44;;;;;;;46.33;30.23;;;5.40;99.90;;;;;;5052047;28;20111;-53
2023/01/21 10:29:16;;;;;;;44.05;31.05;;;5.50;99.90;;;;;;5050077;28;20048;-53
2023/01/21 10:31:49;;;;;;;43.97;29.83;;;5.20;99.90;;;;;;5049616;28;20021;-54
2023/01/21 10:34:18;;;;;;;46.97;31.73;;;5.30;99.90;;;;;;5054002;28;20029;-55
2023/01/21 10:36:52;;;;;;;42.88;31.27;;;5.50;99.90;;;;;;5044459;28;20094;-53
2023/01/21 10:39:30;;;;;;;43.88;32.05;;;5.40;99.90;;;;;;5053897;28;20123;-54
2023/01/21 10:42:08;;;;;;;44.72;32.78;;;5.30;99.90;;;;;;5048414;28;20036;-55
2023/01/21 10:44:50;;;;;;;45.17;32.15;;;5.30;99.90;;;;;;5051804;28;20432;-53
2023/01/21 10:47:41;;;;;;;45.22;33.17;;;5.20;99.90;;;;;;5052518;28;20118;-54
2023/01/21 10:50:32;;;;;;;46.83;30.38;;;5.60;99.90;;;;;;5047492;28;20545;-54
2023/01/21 10:53:22;;;;;;;48.42;31.85;;;5.70;99.90;;;;;;5044412;28;20021;-55
2023/01/21 10:56:19;;;;;;;48.05;31.25;;;5.60;99.90;;;;;;5048443;28;20071;-52
2023/01/21 10:59:11;;;;;;;45.08;31.83;;;5.20;99.90;;;;;;5047119;28;20032;-53
2023/01/21 11:01:44;;;;;;;48.05;31.95;;;5.30;99.90;;;;;;5051974;28;20393;-54
2023/01/21 11:04:15;;;;;;;49.30;34.60;;;5.30;99.90;;;;;;5034895;28;20067;-52
2023/01/21 11:06:42;;;;;;;49.35;33.20;;;5.30;99.90;;;;;;5049772;28;20057;-54
2023/01/21 11:09:13;;;;;;;52.25;35.20;;;5.50;99.90;;;;;;5042861;28;20079;-53
2023/01/21 11:11:40;;;;;;;50.10;34.30;;;5.60;99.90;;;;;;5052885;28;20021;-55
2023/01/21 11:14:06;;;;;;;51.25;34.40;;;5.80;99.90;;;;;;5052086;28;20433;-54
2023/01/21 11:16:34;;;;;;;49.42;32.55;;;5.70;99.90;;;;;;5039660;28;20063;-54
2023/01/21 11:19:02;;;;;;;49.50;32.38;;;5.70;99.90;;;;;;5048077;28;20032;-53
2023/01/21 11:21:28;;;;;;;55.92;34.85;;;5.70;99.90;;;;;;5053007;28;20025;-52
2023/01/21 11:23:56;;;;;;;51.42;35.30;;;5.80;99.90;;;;;;5034320;28;20045;-53
2023/01/21 11:26:30;;;;;;;55.22;36.50;;;5.90;99.90;;;;;;5052668;28;20031;-55
2023/01/21 11:29:15;;;;;;;55.08;36.03;;;5.90;99.90;;;;;;5051357;28;20028;-54
2023/01/21 11:31:44;;;;;;;50.38;34.45;;;5.50;99.90;;;;;;5052741;28;20020;-53
2023/01/21 11:34:12;;;;;;;54.30;37.70;;;5.50;99.90;;;;;;5050708;28;20033;-53
2023/01/21 11:37:03;;;;;;;48.42;33.60;;;5.70;99.90;;;;;;5053261;28;20060;-52
2023/01/21 11:39:45;;;;;;;48.70;32.95;;;5.80;99.90;;;;;;5049820;28;20469;-54
2023/01/21 11:42:13;;;;;;;;;;;6.00;99.90;;;;;;5026273;28;20041;-52
2023/01/21 11:45:03;;;;;;;46.22;29.30;;;6.10;99.90;;;;;;5050753;28;19916;-54
2023/01/21 11:47:38;;;;;;;45.78;31.73;;;5.80;99.90;;;;;;5047671;28;20025;-53
2023/01/21 11:50:30;;;;;;;47.20;32.35;;;5.90;99.90;;;;;;5045246;28;20122;-52
2023/01/21 11:53:16;;;;;;;115.40;54.72;;;6.00;99.90;;;;;;5036328;28;20034;-52
2023/01/21 11:55:48;;;;;;;275.15;92.60;;;6.20;99.90;;;;;;5044933;28;20104;-54
2023/01/21 11:58:31;;;;;;;;;;;6.10;99.90;;;;;;5048752;28;20111;-53
2023/01/21 12:01:00;;;;;;;111.85;46.25;;;6.20;99.90;;;;;;5043458;28;19955;-53
2023/01/21 12:03:59;;;;;;;152.20;54.25;;;6.10;99.90;;;;;;5052089;28;20060;-53
2023/01/21 12:06:30;;;;;;;141.20;51.30;;;6.30;99.90;;;;;;5063075;28;20044;-52
2023/01/21 12:09:01;;;;;;;122.97;48.30;;;6.10;99.90;;;;;;5053757;28;20052;-53
2023/01/21 12:11:29;;;;;;;255.57;69.35;;;6.20;99.90;;;;;;5016420;28;20045;-52
2023/01/21 12:14:05;;;;;;;227.77;65.47;;;5.80;99.90;;;;;;5046063;28;20043;-49
2023/01/21 12:16:51;;;;;;;110.22;39.63;;;5.60;99.90;;;;;;5047882;28;20108;-50
2023/01/21 12:19:32;;;;;;;156.38;50.20;;;5.50;99.90;;;;;;5049622;28;20040;-46
2023/01/21 12:22:40;;;;;;;429.92;104.63;;;5.40;99.90;;;;;;5048457;28;20029;-47
2023/01/21 12:25:43;;;;;;;546.00;149.00;;;5.30;99.90;;;;;;4975118;28;20140;-52
2023/01/21 12:28:47;;;;;;;165.38;60.85;;;5.30;99.90;;;;;;4989860;28;20034;-51
2023/01/21 12:31:34;;;;;;;279.17;86.97;;;5.60;99.90;;;;;;4991700;28;20185;-51
2023/01/21 12:34:24;;;;;;;125.47;53.35;;;5.50;99.90;;;;;;4991266;28;20046;-51
2023/01/21 12:36:58;;;;;;;144.25;53.08;;;5.60;99.90;;;;;;4991211;28;20099;-51
2023/01/21 12:39:24;;;;;;;244.68;71.85;;;5.70;99.90;;;;;;4990891;28;20215;-51
2023/01/21 12:42:05;;;;;;;177.73;62.55;;;5.80;99.90;;;;;;4973874;28;20609;-51
2023/01/21 12:44:58;;;;;;;183.75;63.83;;;6.00;99.90;;;;;;4991653;28;20438;-51
2023/01/21 12:47:26;;;;;;;188.05;64.97;;;5.80;99.90;;;;;;4990825;28;20375;-54
2023/01/21 12:50:26;;;;;;;119.97;48.83;;;5.60;99.90;;;;;;4991085;28;20038;-50
2023/01/21 12:53:02;;;;;;;135.70;54.33;;;5.80;99.90;;;;;;4990984;28;20038;-51
2023/01/21 12:55:46;;;;;;;111.97;44.70;;;5.50;99.90;;;;;;4990749;28;20050;-50
2023/01/21 12:58:17;;;;;;;312.92;88.35;;;5.30;99.90;;;;;;4988812;28;20034;-50
2023/01/21 13:00:47;;;;;;;134.70;54.45;;;5.40;99.90;;;;;;4990714;28;20390;-50